sensor_id;sensor_type;location;lat;lon;timestamp;pressure;altitude;pressure_sealevel;temperature;humidity
70248;BME280;57641;51.416;5.506;2023-04-04T00:01:01;103020.66;;;8.64;44.44
70248;BME280;57641;51.416;5.506;2023-04-04T00:03:27;103027.91;;;8.62;44.21
70248;BME280;57641;51.416;5.506;2023-04-04T00:05:52;103023.59;;;8.59;44.16
70248;BME280;57641;51.416;5.506;2023-04-04T00:08:21;103027.47;;;8.54;44.69
70248;BME280;57641;51.416;5.506;2023-04-04T00:10:47;103025.66;;;8.54;44.49
70248;BME280;57641;51.416;5.506;2023-04-04T00:13:12;103020.41;;;8.53;45.02
70248;BME280;57641;51.416;5.506;2023-04-04T00:15:38;103026.94;;;8.47;44.66
70248;BME280;57641;51.416;5.506;2023-04-04T00:18:04;103025.41;;;8.43;44.48
70248;BME280;57641;51.416;5.506;2023-04-04T00:20:30;103025.47;;;8.41;44.83
70248;BME280;57641;51.416;5.506;2023-04-04T00:22:56;103028.25;;;8.40;45.22
70248;BME280;57641;51.416;5.506;2023-04-04T00:25:22;103026.59;;;8.37;44.80
70248;BME280;57641;51.416;5.506;2023-04-04T00:27:48;103029.44;;;8.34;45.30
70248;BME280;57641;51.416;5.506;2023-04-04T00:30:14;103032.41;;;8.28;45.32
70248;BME280;57641;51.416;5.506;2023-04-04T00:32:40;103031.47;;;8.29;46.01
70248;BME280;57641;51.416;5.506;2023-04-04T00:35:06;103029.72;;;8.30;45.42
70248;BME280;57641;51.416;5.506;2023-04-04T00:37:33;103037.03;;;8.25;45.21
70248;BME280;57641;51.416;5.506;2023-04-04T00:40:00;103035.41;;;8.22;45.04
70248;BME280;57641;51.416;5.506;2023-04-04T00:42:26;103028.63;;;8.17;44.52
70248;BME280;57641;51.416;5.506;2023-04-04T00:44:52;103035.13;;;8.11;44.79
70248;BME280;57641;51.416;5.506;2023-04-04T00:47:21;103039.59;;;8.11;45.37
70248;BME280;57641;51.416;5.506;2023-04-04T00:49:50;103038.91;;;8.07;45.11
70248;BME280;57641;51.416;5.506;2023-04-04T00:52:16;103049.59;;;8.05;45.28
70248;BME280;57641;51.416;5.506;2023-04-04T00:54:42;103048.13;;;8.00;45.04
70248;BME280;57641;51.416;5.506;2023-04-04T00:57:08;103049.19;;;7.97;45.46
70248;BME280;57641;51.416;5.506;2023-04-04T00:59:34;103045.66;;;7.97;46.07
70248;BME280;57641;51.416;5.506;2023-04-04T01:02:00;103046.66;;;7.94;45.50
70248;BME280;57641;51.416;5.506;2023-04-04T01:04:26;103048.56;;;7.92;45.87
70248;BME280;57641;51.416;5.506;2023-04-04T01:06:55;103044.44;;;7.87;46.05
70248;BME280;57641;51.416;5.506;2023-04-04T01:09:22;103048.97;;;7.85;45.89
70248;BME280;57641;51.416;5.506;2023-04-04T01:11:48;103048.03;;;7.86;46.09
70248;BME280;57641;51.416;5.506;2023-04-04T01:14:13;103045.53;;;7.83;46.31
70248;BME280;57641;51.416;5.506;2023-04-04T01:16:40;103043.72;;;7.83;45.78
70248;BME280;57641;51.416;5.506;2023-04-04T01:19:15;103046.56;;;7.80;46.69
70248;BME280;57641;51.416;5.506;2023-04-04T01:21:44;103038.78;;;7.77;45.96
70248;BME280;57641;51.416;5.506;2023-04-04T01:24:12;103038.84;;;7.76;46.09
70248;BME280;57641;51.416;5.506;2023-04-04T01:26:40;103036.25;;;7.74;45.75
70248;BME280;57641;51.416;5.506;2023-04-04T01:29:06;103040.97;;;7.69;45.81
70248;BME280;57641;51.416;5.506;2023-04-04T01:31:36;103036.69;;;7.67;45.93
70248;BME280;57641;51.416;5.506;2023-04-04T01:34:13;103026.06;;;7.67;46.00
70248;BME280;57641;51.416;5.506;2023-04-04T01:36:49;103019.41;;;7.58;46.55
70248;BME280;57641;51.416;5.506;2023-04-04T01:39:48;103017.81;;;7.55;46.50
70248;BME280;57641;51.416;5.506;2023-04-04T01:42:17;103016.22;;;7.51;46.78
70248;BME280;57641;51.416;5.506;2023-04-04T01:44:44;103013.56;;;7.51;46.47
70248;BME280;57641;51.416;5.506;2023-04-04T01:47:14;103021.72;;;7.48;46.53
70248;BME280;57641;51.416;5.506;2023-04-04T01:49:40;103017.41;;;7.46;46.53
70248;BME280;57641;51.416;5.506;2023-04-04T01:52:06;103011.34;;;7.44;46.39
70248;BME280;57641;51.416;5.506;2023-04-04T01:54:31;103005.47;;;7.37;46.12
70248;BME280;57641;51.416;5.506;2023-04-04T01:56:58;103009.78;;;7.40;46.42
70248;BME280;57641;51.416;5.506;2023-04-04T01:59:27;103009.06;;;7.36;47.21
70248;BME280;57641;51.416;5.506;2023-04-04T02:01:52;103010.09;;;7.34;46.89
70248;BME280;57641;51.416;5.506;2023-04-04T02:04:18;103014.63;;;7.32;46.52
70248;BME280;57641;51.416;5.506;2023-04-04T02:06:43;103017.44;;;7.29;46.90
70248;BME280;57641;51.416;5.506;2023-04-04T02:09:10;103016.66;;;7.27;47.02
70248;BME280;57641;51.416;5.506;2023-04-04T02:11:35;103012.22;;;7.27;47.37
70248;BME280;57641;51.416;5.506;2023-04-04T02:14:01;103009.56;;;7.27;47.45
70248;BME280;57641;51.416;5.506;2023-04-04T02:16:27;103006.28;;;7.22;47.68
70248;BME280;57641;51.416;5.506;2023-04-04T02:18:56;103009.63;;;7.26;47.17
70248;BME280;57641;51.416;5.506;2023-04-04T02:21:21;103013.38;;;7.21;47.31
70248;BME280;57641;51.416;5.506;2023-04-04T02:23:47;103015.34;;;7.18;47.73
70248;BME280;57641;51.416;5.506;2023-04-04T02:26:12;103010.97;;;7.17;47.70
70248;BME280;57641;51.416;5.506;2023-04-04T02:28:38;103016.50;;;7.12;47.24
70248;BME280;57641;51.416;5.506;2023-04-04T02:31:04;103014.78;;;7.11;47.62
70248;BME280;57641;51.416;5.506;2023-04-04T02:33:30;103014.97;;;7.08;47.86
70248;BME280;57641;51.416;5.506;2023-04-04T02:35:57;103009.56;;;7.10;47.56
70248;BME280;57641;51.416;5.506;2023-04-04T02:38:23;103011.44;;;7.08;48.02
70248;BME280;57641;51.416;5.506;2023-04-04T02:40:50;103012.38;;;7.07;47.35
70248;BME280;57641;51.416;5.506;2023-04-04T02:43:15;103015.16;;;7.04;46.85
70248;BME280;57641;51.416;5.506;2023-04-04T02:45:41;103009.84;;;7.04;47.50
70248;BME280;57641;51.416;5.506;2023-04-04T02:48:06;103018.78;;;7.03;47.77
70248;BME280;57641;51.416;5.506;2023-04-04T02:50:35;103015.56;;;6.96;47.68
70248;BME280;57641;51.416;5.506;2023-04-04T02:53:02;103018.28;;;6.95;48.33
70248;BME280;57641;51.416;5.506;2023-04-04T02:55:28;103025.38;;;6.94;47.62
70248;BME280;57641;51.416;5.506;2023-04-04T02:57:54;103014.84;;;6.93;48.21
70248;BME280;57641;51.416;5.506;2023-04-04T03:00:20;103015.69;;;6.93;48.10
70248;BME280;57641;51.416;5.506;2023-04-04T03:02:52;103023.75;;;6.92;48.30
70248;BME280;57641;51.416;5.506;2023-04-04T03:05:18;103014.09;;;6.91;47.95
70248;BME280;57641;51.416;5.506;2023-04-04T03:07:44;103013.06;;;6.93;47.86
70248;BME280;57641;51.416;5.506;2023-04-04T03:10:09;103019.44;;;6.89;47.84
70248;BME280;57641;51.416;5.506;2023-04-04T03:12:35;103017.81;;;6.87;47.20
70248;BME280;57641;51.416;5.506;2023-04-04T03:15:00;103010.06;;;6.82;48.11
70248;BME280;57641;51.416;5.506;2023-04-04T03:17:26;103014.56;;;6.82;47.66
70248;BME280;57641;51.416;5.506;2023-04-04T03:19:51;103016.41;;;6.79;47.97
70248;BME280;57641;51.416;5.506;2023-04-04T03:22:17;103010.31;;;6.77;48.18
70248;BME280;57641;51.416;5.506;2023-04-04T03:24:42;103010.47;;;6.74;48.20
70248;BME280;57641;51.416;5.506;2023-04-04T03:27:08;103013.28;;;6.71;47.96
70248;BME280;57641;51.416;5.506;2023-04-04T03:29:33;103014.22;;;6.70;47.72
70248;BME280;57641;51.416;5.506;2023-04-04T03:31:59;103016.88;;;6.70;48.11
70248;BME280;57641;51.416;5.506;2023-04-04T03:34:24;103013.41;;;6.68;48.84
70248;BME280;57641;51.416;5.506;2023-04-04T03:36:51;103022.31;;;6.67;48.27
70248;BME280;57641;51.416;5.506;2023-04-04T03:39:17;103017.00;;;6.67;48.08
70248;BME280;57641;51.416;5.506;2023-04-04T03:41:43;103015.28;;;6.66;48.38
70248;BME280;57641;51.416;5.506;2023-04-04T03:44:09;103011.94;;;6.63;47.92
70248;BME280;57641;51.416;5.506;2023-04-04T03:46:34;103002.34;;;6.60;48.21
70248;BME280;57641;51.416;5.506;2023-04-04T03:49:01;103006.00;;;6.58;48.41
70248;BME280;57641;51.416;5.506;2023-04-04T03:51:26;103002.47;;;6.57;48.04
70248;BME280;57641;51.416;5.506;2023-04-04T03:53:52;102997.25;;;6.56;48.29
70248;BME280;57641;51.416;5.506;2023-04-04T03:56:18;102998.28;;;6.53;48.22
70248;BME280;57641;51.416;5.506;2023-04-04T03:58:44;103001.16;;;6.49;48.26
70248;BME280;57641;51.416;5.506;2023-04-04T04:01:10;102998.63;;;6.46;48.08
70248;BME280;57641;51.416;5.506;2023-04-04T04:03:35;103007.59;;;6.43;48.39
70248;BME280;57641;51.416;5.506;2023-04-04T04:06:04;102995.13;;;6.45;48.19
70248;BME280;57641;51.416;5.506;2023-04-04T04:08:30;102990.91;;;6.41;48.25
70248;BME280;57641;51.416;5.506;2023-04-04T04:10:55;102994.66;;;6.37;48.56
70248;BME280;57641;51.416;5.506;2023-04-04T04:13:21;102996.44;;;6.36;48.39
70248;BME280;57641;51.416;5.506;2023-04-04T04:15:50;102991.13;;;6.36;48.08
70248;BME280;57641;51.416;5.506;2023-04-04T04:18:18;102999.16;;;6.35;48.59
70248;BME280;57641;51.416;5.506;2023-04-04T04:20:43;102991.59;;;6.27;48.71
70248;BME280;57641;51.416;5.506;2023-04-04T04:23:09;102996.09;;;6.25;49.10
70248;BME280;57641;51.416;5.506;2023-04-04T04:25:37;102989.94;;;6.25;48.18
70248;BME280;57641;51.416;5.506;2023-04-04T04:28:02;102989.06;;;6.24;48.20
70248;BME280;57641;51.416;5.506;2023-04-04T04:30:28;102989.22;;;6.21;47.95
70248;BME280;57641;51.416;5.506;2023-04-04T04:32:53;102987.44;;;6.22;48.57
70248;BME280;57641;51.416;5.506;2023-04-04T04:35:18;102993.50;;;6.24;48.56
70248;BME280;57641;51.416;5.506;2023-04-04T04:37:44;102991.66;;;6.26;48.22
70248;BME280;57641;51.416;5.506;2023-04-04T04:40:10;102989.22;;;6.21;48.39
70248;BME280;57641;51.416;5.506;2023-04-04T04:42:45;102988.44;;;6.19;48.83
70248;BME280;57641;51.416;5.506;2023-04-04T04:45:11;102989.44;;;6.17;49.04
70248;BME280;57641;51.416;5.506;2023-04-04T04:47:36;102985.22;;;6.13;48.78
70248;BME280;57641;51.416;5.506;2023-04-04T04:50:03;102983.63;;;6.09;49.07
70248;BME280;57641;51.416;5.506;2023-04-04T04:52:32;102992.59;;;6.06;48.73
70248;BME280;57641;51.416;5.506;2023-04-04T04:55:00;102984.00;;;6.01;49.32
70248;BME280;57641;51.416;5.506;2023-04-04T04:57:26;102984.13;;;5.98;48.92
70248;BME280;57641;51.416;5.506;2023-04-04T04:59:52;102990.38;;;5.97;48.89
70248;BME280;57641;51.416;5.506;2023-04-04T05:02:17;102999.09;;;5.99;48.99
70248;BME280;57641;51.416;5.506;2023-04-04T05:04:43;103001.69;;;6.01;49.10
70248;BME280;57641;51.416;5.506;2023-04-04T05:07:10;103007.78;;;6.03;49.26
70248;BME280;57641;51.416;5.506;2023-04-04T05:09:37;103011.47;;;5.99;49.25
70248;BME280;57641;51.416;5.506;2023-04-04T05:12:03;103015.78;;;6.01;49.38
70248;BME280;57641;51.416;5.506;2023-04-04T05:14:28;103021.09;;;6.01;49.54
70248;BME280;57641;51.416;5.506;2023-04-04T05:16:54;103032.53;;;6.02;49.47
70248;BME280;57641;51.416;5.506;2023-04-04T05:19:19;103027.16;;;6.03;49.20
70248;BME280;57641;51.416;5.506;2023-04-04T05:21:45;103024.50;;;6.03;49.44
70248;BME280;57641;51.416;5.506;2023-04-04T05:24:11;103029.78;;;6.03;49.77
70248;BME280;57641;51.416;5.506;2023-04-04T05:26:36;103026.44;;;6.00;49.48
70248;BME280;57641;51.416;5.506;2023-04-04T05:29:05;103022.81;;;6.02;49.57
70248;BME280;57641;51.416;5.506;2023-04-04T05:31:31;103009.69;;;5.99;49.46
70248;BME280;57641;51.416;5.506;2023-04-04T05:33:56;103010.72;;;5.97;49.78
70248;BME280;57641;51.416;5.506;2023-04-04T05:36:22;103016.22;;;5.92;49.93
70248;BME280;57641;51.416;5.506;2023-04-04T05:38:51;103018.00;;;5.91;49.84
70248;BME280;57641;51.416;5.506;2023-04-04T05:41:16;103017.78;;;5.96;50.07
70248;BME280;57641;51.416;5.506;2023-04-04T05:43:41;103014.22;;;5.97;49.91
70248;BME280;57641;51.416;5.506;2023-04-04T05:46:07;103017.69;;;5.98;50.23
70248;BME280;57641;51.416;5.506;2023-04-04T05:48:33;103024.66;;;6.00;50.27
70248;BME280;57641;51.416;5.506;2023-04-04T05:50:58;103022.88;;;6.01;50.15
70248;BME280;57641;51.416;5.506;2023-04-04T05:53:24;103033.25;;;6.05;50.15
70248;BME280;57641;51.416;5.506;2023-04-04T05:55:52;103035.88;;;6.05;50.01
70248;BME280;57641;51.416;5.506;2023-04-04T05:58:18;103044.53;;;6.09;50.22
70248;BME280;57641;51.416;5.506;2023-04-04T06:00:43;103042.75;;;6.09;50.45
70248;BME280;57641;51.416;5.506;2023-04-04T06:03:08;103048.69;;;6.14;50.37
70248;BME280;57641;51.416;5.506;2023-04-04T06:05:35;103050.34;;;6.17;50.22
70248;BME280;57641;51.416;5.506;2023-04-04T06:08:00;103042.25;;;6.20;50.57
70248;BME280;57641;51.416;5.506;2023-04-04T06:10:25;103047.16;;;6.29;50.54
70248;BME280;57641;51.416;5.506;2023-04-04T06:12:51;103037.19;;;6.34;50.63
70248;BME280;57641;51.416;5.506;2023-04-04T06:15:17;103041.34;;;6.40;50.22
70248;BME280;57641;51.416;5.506;2023-04-04T06:17:42;103038.38;;;6.46;49.37
70248;BME280;57641;51.416;5.506;2023-04-04T06:20:09;103039.81;;;6.53;49.27
70248;BME280;57641;51.416;5.506;2023-04-04T06:22:35;103038.66;;;6.58;49.39
70248;BME280;57641;51.416;5.506;2023-04-04T06:25:01;103045.47;;;6.64;49.43
70248;BME280;57641;51.416;5.506;2023-04-04T06:27:26;103043.16;;;6.75;49.11
70248;BME280;57641;51.416;5.506;2023-04-04T06:29:52;103038.19;;;6.86;48.37
70248;BME280;57641;51.416;5.506;2023-04-04T06:32:19;103053.63;;;6.95;48.06
70248;BME280;57641;51.416;5.506;2023-04-04T06:34:48;103050.59;;;7.03;48.06
70248;BME280;57641;51.416;5.506;2023-04-04T06:37:14;103054.66;;;7.10;48.42
70248;BME280;57641;51.416;5.506;2023-04-04T06:39:39;103057.31;;;7.27;47.46
70248;BME280;57641;51.416;5.506;2023-04-04T06:42:05;103062.25;;;7.35;46.96
70248;BME280;57641;51.416;5.506;2023-04-04T06:44:30;103068.94;;;7.42;46.80
70248;BME280;57641;51.416;5.506;2023-04-04T06:46:56;103072.94;;;7.50;46.57
70248;BME280;57641;51.416;5.506;2023-04-04T06:49:22;103074.00;;;7.63;46.05
70248;BME280;57641;51.416;5.506;2023-04-04T06:51:47;103064.25;;;7.64;45.92
70248;BME280;57641;51.416;5.506;2023-04-04T06:54:15;103070.94;;;7.71;46.10
70248;BME280;57641;51.416;5.506;2023-04-04T06:56:41;103060.94;;;7.76;46.56
70248;BME280;57641;51.416;5.506;2023-04-04T06:59:06;103060.69;;;7.81;46.30
70248;BME280;57641;51.416;5.506;2023-04-04T07:01:35;103066.31;;;7.92;46.03
70248;BME280;57641;51.416;5.506;2023-04-04T07:04:06;103069.13;;;8.04;45.50
70248;BME280;57641;51.416;5.506;2023-04-04T07:06:35;103068.06;;;8.24;44.62
70248;BME280;57641;51.416;5.506;2023-04-04T07:09:00;103062.50;;;8.29;44.90
70248;BME280;57641;51.416;5.506;2023-04-04T07:11:27;103061.59;;;8.45;43.88
70248;BME280;57641;51.416;5.506;2023-04-04T07:13:53;103049.00;;;8.49;43.61
70248;BME280;57641;51.416;5.506;2023-04-04T07:16:19;103048.78;;;8.68;43.09
70248;BME280;57641;51.416;5.506;2023-04-04T07:18:45;103053.38;;;8.66;42.54
70248;BME280;57641;51.416;5.506;2023-04-04T07:21:10;103054.13;;;8.68;42.79
70248;BME280;57641;51.416;5.506;2023-04-04T07:23:36;103057.28;;;8.74;42.92
70248;BME280;57641;51.416;5.506;2023-04-04T07:26:01;103057.34;;;8.88;42.04
70248;BME280;57641;51.416;5.506;2023-04-04T07:28:27;103058.78;;;8.94;41.51
70248;BME280;57641;51.416;5.506;2023-04-04T07:30:52;103051.31;;;9.01;41.85
70248;BME280;57641;51.416;5.506;2023-04-04T07:33:17;103049.56;;;9.15;41.17
70248;BME280;57641;51.416;5.506;2023-04-04T07:35:43;103047.53;;;9.35;40.69
70248;BME280;57641;51.416;5.506;2023-04-04T07:38:08;103041.00;;;9.40;40.67
70248;BME280;57641;51.416;5.506;2023-04-04T07:40:34;103044.31;;;9.44;40.34
70248;BME280;57641;51.416;5.506;2023-04-04T07:43:02;103041.00;;;9.54;38.93
70248;BME280;57641;51.416;5.506;2023-04-04T07:45:28;103042.72;;;9.55;39.40
70248;BME280;57641;51.416;5.506;2023-04-04T07:47:53;103046.91;;;9.59;39.14
70248;BME280;57641;51.416;5.506;2023-04-04T07:50:19;103045.31;;;9.71;38.56
70248;BME280;57641;51.416;5.506;2023-04-04T07:52:49;103045.97;;;9.74;38.61
70248;BME280;57641;51.416;5.506;2023-04-04T07:55:20;103039.03;;;9.72;37.70
70248;BME280;57641;51.416;5.506;2023-04-04T07:57:49;103052.81;;;9.79;38.17
70248;BME280;57641;51.416;5.506;2023-04-04T08:00:17;103040.47;;;9.92;38.21
70248;BME280;57641;51.416;5.506;2023-04-04T08:02:47;103041.69;;;10.00;37.65
70248;BME280;57641;51.416;5.506;2023-04-04T08:05:15;103048.06;;;10.26;36.67
70248;BME280;57641;51.416;5.506;2023-04-04T08:07:41;103046.09;;;10.30;37.16
70248;BME280;57641;51.416;5.506;2023-04-04T08:10:09;103049.47;;;10.32;36.21
70248;BME280;57641;51.416;5.506;2023-04-04T08:12:35;103051.97;;;10.35;35.16
70248;BME280;57641;51.416;5.506;2023-04-04T08:15:00;103056.81;;;10.42;35.61
70248;BME280;57641;51.416;5.506;2023-04-04T08:17:32;103054.31;;;10.53;36.15
70248;BME280;57641;51.416;5.506;2023-04-04T08:19:57;103042.19;;;10.62;34.63
70248;BME280;57641;51.416;5.506;2023-04-04T08:22:23;103043.19;;;10.74;35.62
70248;BME280;57641;51.416;5.506;2023-04-04T08:24:48;103047.97;;;10.69;34.88
70248;BME280;57641;51.416;5.506;2023-04-04T08:27:14;103051.56;;;10.82;34.54
70248;BME280;57641;51.416;5.506;2023-04-04T08:29:40;103045.06;;;10.86;34.05
70248;BME280;57641;51.416;5.506;2023-04-04T08:32:06;103049.06;;;10.79;33.31
70248;BME280;57641;51.416;5.506;2023-04-04T08:34:31;103059.00;;;10.77;35.16
70248;BME280;57641;51.416;5.506;2023-04-04T08:36:57;103058.84;;;10.92;35.11
70248;BME280;57641;51.416;5.506;2023-04-04T08:39:22;103054.38;;;11.06;33.08
70248;BME280;57641;51.416;5.506;2023-04-04T08:41:55;103054.22;;;11.21;32.13
70248;BME280;57641;51.416;5.506;2023-04-04T08:44:23;103054.47;;;11.31;32.90
70248;BME280;57641;51.416;5.506;2023-04-04T08:46:50;103039.59;;;11.27;33.25
70248;BME280;57641;51.416;5.506;2023-04-04T08:49:17;103047.13;;;11.47;31.83
70248;BME280;57641;51.416;5.506;2023-04-04T08:51:48;103036.97;;;11.52;31.75
70248;BME280;57641;51.416;5.506;2023-04-04T08:54:15;103036.84;;;11.54;31.23
70248;BME280;57641;51.416;5.506;2023-04-04T08:56:42;103039.41;;;11.42;32.77
70248;BME280;57641;51.416;5.506;2023-04-04T08:59:07;103041.47;;;11.52;31.10
70248;BME280;57641;51.416;5.506;2023-04-04T09:01:36;103034.84;;;11.57;31.96
70248;BME280;57641;51.416;5.506;2023-04-04T09:04:03;103037.06;;;11.51;32.22
70248;BME280;57641;51.416;5.506;2023-04-04T09:06:29;103042.75;;;11.46;31.50
70248;BME280;57641;51.416;5.506;2023-04-04T09:08:56;103033.78;;;11.47;32.05
70248;BME280;57641;51.416;5.506;2023-04-04T09:11:25;103036.25;;;11.75;32.00
70248;BME280;57641;51.416;5.506;2023-04-04T09:13:54;103025.47;;;11.90;31.50
70248;BME280;57641;51.416;5.506;2023-04-04T09:16:21;103025.22;;;11.93;31.53
70248;BME280;57641;51.416;5.506;2023-04-04T09:18:47;103022.66;;;12.04;30.50
70248;BME280;57641;51.416;5.506;2023-04-04T09:21:13;103032.78;;;12.11;31.10
70248;BME280;57641;51.416;5.506;2023-04-04T09:23:39;103033.97;;;12.07;29.80
70248;BME280;57641;51.416;5.506;2023-04-04T09:26:05;103036.03;;;11.91;29.85
70248;BME280;57641;51.416;5.506;2023-04-04T09:28:32;103037.63;;;11.81;29.52
70248;BME280;57641;51.416;5.506;2023-04-04T09:31:02;103027.50;;;11.73;30.07
70248;BME280;57641;51.416;5.506;2023-04-04T09:33:30;103033.47;;;11.77;30.39
70248;BME280;57641;51.416;5.506;2023-04-04T09:36:01;103039.97;;;11.98;30.92
70248;BME280;57641;51.416;5.506;2023-04-04T09:38:28;103027.31;;;12.25;29.98
70248;BME280;57641;51.416;5.506;2023-04-04T09:40:55;103036.63;;;12.20;29.54
70248;BME280;57641;51.416;5.506;2023-04-04T09:43:25;103033.69;;;11.99;31.04
70248;BME280;57641;51.416;5.506;2023-04-04T09:45:55;103032.06;;;12.09;30.65
70248;BME280;57641;51.416;5.506;2023-04-04T09:48:29;103028.00;;;12.04;30.51
70248;BME280;57641;51.416;5.506;2023-04-04T09:50:56;103023.16;;;12.09;30.79
70248;BME280;57641;51.416;5.506;2023-04-04T09:53:26;103015.88;;;12.11;30.41
70248;BME280;57641;51.416;5.506;2023-04-04T09:55:54;103018.25;;;12.39;30.20
70248;BME280;57641;51.416;5.506;2023-04-04T09:58:24;103014.06;;;12.48;29.86
70248;BME280;57641;51.416;5.506;2023-04-04T10:00:59;103016.88;;;12.46;29.13
70248;BME280;57641;51.416;5.506;2023-04-04T10:03:27;103018.16;;;12.41;29.81
70248;BME280;57641;51.416;5.506;2023-04-04T10:05:59;103008.59;;;12.25;29.51
70248;BME280;57641;51.416;5.506;2023-04-04T10:08:27;103007.16;;;12.33;30.03
70248;BME280;57641;51.416;5.506;2023-04-04T10:10:58;103006.03;;;12.48;29.78
70248;BME280;57641;51.416;5.506;2023-04-04T10:13:25;102998.13;;;12.46;30.52
70248;BME280;57641;51.416;5.506;2023-04-04T10:15:56;102997.59;;;12.65;29.36
70248;BME280;57641;51.416;5.506;2023-04-04T10:18:32;102995.34;;;12.72;29.54
70248;BME280;57641;51.416;5.506;2023-04-04T10:21:00;102996.47;;;12.56;29.56
70248;BME280;57641;51.416;5.506;2023-04-04T10:23:27;102995.50;;;12.81;30.00
70248;BME280;57641;51.416;5.506;2023-04-04T10:25:57;102998.22;;;12.92;29.75
70248;BME280;57641;51.416;5.506;2023-04-04T10:28:23;102997.81;;;12.86;28.66
70248;BME280;57641;51.416;5.506;2023-04-04T10:31:23;102995.44;;;12.94;28.16
70248;BME280;57641;51.416;5.506;2023-04-04T10:34:14;103002.81;;;12.90;27.56
70248;BME280;57641;51.416;5.506;2023-04-04T10:36:53;103001.28;;;12.99;28.10
70248;BME280;57641;51.416;5.506;2023-04-04T10:39:39;103001.91;;;13.02;28.13
70248;BME280;57641;51.416;5.506;2023-04-04T10:42:08;103001.78;;;13.04;27.30
70248;BME280;57641;51.416;5.506;2023-04-04T10:44:38;102992.34;;;13.11;27.17
70248;BME280;57641;51.416;5.506;2023-04-04T10:47:22;102988.22;;;13.18;27.24
70248;BME280;57641;51.416;5.506;2023-04-04T10:49:49;102988.72;;;13.23;28.09
70248;BME280;57641;51.416;5.506;2023-04-04T10:52:21;102982.38;;;13.13;27.64
70248;BME280;57641;51.416;5.506;2023-04-04T10:54:53;102979.84;;;13.23;27.68
70248;BME280;57641;51.416;5.506;2023-04-04T10:57:20;102981.06;;;13.30;28.93
70248;BME280;57641;51.416;5.506;2023-04-04T11:00:07;102971.22;;;13.30;26.67
70248;BME280;57641;51.416;5.506;2023-04-04T11:05:25;102970.44;;;13.17;27.78
70248;BME280;57641;51.416;5.506;2023-04-04T11:08:09;102960.41;;;13.43;27.83
70248;BME280;57641;51.416;5.506;2023-04-04T11:13:14;102960.91;;;13.48;27.51
70248;BME280;57641;51.416;5.506;2023-04-04T11:21:09;102958.81;;;13.51;27.39
70248;BME280;57641;51.416;5.506;2023-04-04T11:28:56;102948.56;;;13.34;27.17
70248;BME280;57641;51.416;5.506;2023-04-04T11:31:25;102942.00;;;13.49;27.28
70248;BME280;57641;51.416;5.506;2023-04-04T11:34:08;102936.88;;;13.46;26.73
70248;BME280;57641;51.416;5.506;2023-04-04T11:39:29;102936.50;;;13.84;27.92
70248;BME280;57641;51.416;5.506;2023-04-04T11:42:00;102936.38;;;13.86;26.66
70248;BME280;57641;51.416;5.506;2023-04-04T11:44:31;102928.59;;;13.83;27.33
70248;BME280;57641;51.416;5.506;2023-04-04T11:49:37;102921.38;;;14.06;26.69
70248;BME280;57641;51.416;5.506;2023-04-04T11:52:16;102926.06;;;14.24;27.03
70248;BME280;57641;51.416;5.506;2023-04-04T11:54:44;102924.97;;;14.27;26.73
70248;BME280;57641;51.416;5.506;2023-04-04T11:57:12;102923.13;;;14.27;27.23
70248;BME280;57641;51.416;5.506;2023-04-04T11:59:40;102919.94;;;14.22;26.32
70248;BME280;57641;51.416;5.506;2023-04-04T12:02:08;102912.53;;;14.26;26.75
70248;BME280;57641;51.416;5.506;2023-04-04T12:04:35;102913.69;;;14.33;27.57
70248;BME280;57641;51.416;5.506;2023-04-04T12:07:02;102913.44;;;14.47;27.85
70248;BME280;57641;51.416;5.506;2023-04-04T12:09:31;102907.81;;;14.50;27.29
70248;BME280;57641;51.416;5.506;2023-04-04T12:11:57;102907.25;;;14.88;27.04
70248;BME280;57641;51.416;5.506;2023-04-04T12:14:24;102917.13;;;15.08;25.66
70248;BME280;57641;51.416;5.506;2023-04-04T12:16:52;102910.06;;;14.87;25.86
70248;BME280;57641;51.416;5.506;2023-04-04T12:19:19;102900.69;;;14.81;25.55
70248;BME280;57641;51.416;5.506;2023-04-04T12:21:45;102897.94;;;14.71;26.52
70248;BME280;57641;51.416;5.506;2023-04-04T12:24:11;102885.19;;;14.85;26.49
70248;BME280;57641;51.416;5.506;2023-04-04T12:26:41;102879.75;;;14.75;26.56
70248;BME280;57641;51.416;5.506;2023-04-04T12:29:09;102885.38;;;14.72;25.98
70248;BME280;57641;51.416;5.506;2023-04-04T12:31:37;102881.59;;;14.74;26.38
70248;BME280;57641;51.416;5.506;2023-04-04T12:34:03;102883.81;;;14.69;26.41
70248;BME280;57641;51.416;5.506;2023-04-04T12:36:29;102883.25;;;14.55;25.44
70248;BME280;57641;51.416;5.506;2023-04-04T12:39:23;102874.50;;;14.53;25.83
70248;BME280;57641;51.416;5.506;2023-04-04T12:42:01;102876.59;;;14.70;26.73
70248;BME280;57641;51.416;5.506;2023-04-04T12:44:38;102874.50;;;14.94;26.90
70248;BME280;57641;51.416;5.506;2023-04-04T12:47:08;102860.69;;;14.78;25.75
70248;BME280;57641;51.416;5.506;2023-04-04T12:49:44;102867.44;;;14.93;26.64
70248;BME280;57641;51.416;5.506;2023-04-04T12:52:25;102862.53;;;14.77;26.79
70248;BME280;57641;51.416;5.506;2023-04-04T12:54:51;102862.78;;;14.95;26.75
70248;BME280;57641;51.416;5.506;2023-04-04T12:57:20;102865.06;;;15.00;26.88
70248;BME280;57641;51.416;5.506;2023-04-04T12:59:46;102850.50;;;15.02;26.51
70248;BME280;57641;51.416;5.506;2023-04-04T13:02:18;102850.56;;;15.12;26.51
70248;BME280;57641;51.416;5.506;2023-04-04T13:04:46;102831.56;;;15.34;26.20
70248;BME280;57641;51.416;5.506;2023-04-04T13:07:25;102832.00;;;15.39;25.66
70248;BME280;57641;51.416;5.506;2023-04-04T13:10:01;102825.44;;;15.23;25.65
70248;BME280;57641;51.416;5.506;2023-04-04T13:13:00;102826.22;;;15.44;25.80
70248;BME280;57641;51.416;5.506;2023-04-04T13:15:51;102821.50;;;15.27;24.87
70248;BME280;57641;51.416;5.506;2023-04-04T13:18:21;102818.53;;;15.30;25.94
70248;BME280;57641;51.416;5.506;2023-04-04T13:20:48;102812.16;;;15.31;25.17